Time;durP1;ratioP1;P1;durP2;ratioP2;P2;SDS_P1;SDS_P2;PMS_P1;PMS_P2;Temp;Humidity;BMP_temperature;BMP_pressure;BME280_temperature;BME280_humidity;BME280_pressure;Samples;Min_cycle;Max_cycle;Signal;HPM_P1;HPM_P2
2022/05/04 00:00:09;;;;;;;13.02;2.95;;;8.00;81.10;;;;;;5031062;28;20057;-67
2022/05/04 00:02:36;;;;;;;10.93;2.42;;;8.00;81.60;;;;;;5030084;28;20416;-58
2022/05/04 00:05:03;;;;;;;13.23;2.47;;;8.00;83.30;;;;;;5030355;28;20154;-57
2022/05/04 00:07:28;;;;;;;12.02;2.15;;;7.90;85.00;;;;;;5030927;28;20049;-58
2022/05/04 00:09:55;;;;;;;16.08;2.58;;;7.90;85.80;;;;;;5029754;28;20060;-58
2022/05/04 00:12:21;;;;;;;7.20;2.00;;;7.90;83.10;;;;;;5038111;28;20048;-59
2022/05/04 00:14:47;;;;;;;10.98;3.03;;;7.80;82.70;;;;;;5017183;28;20129;-59
2022/05/04 00:17:13;;;;;;;8.93;2.40;;;7.80;79.00;;;;;;5030941;28;20049;-62
2022/05/04 00:19:39;;;;;;;13.13;2.35;;;7.90;83.90;;;;;;5029731;28;20503;-60
2022/05/04 00:22:15;;;;;;;16.77;2.55;;;7.80;84.30;;;;;;5030459;28;20111;-67
2022/05/04 00:24:41;;;;;;;9.93;2.13;;;7.80;86.30;;;;;;5048360;28;20048;-62
2022/05/04 00:27:06;;;;;;;16.35;2.33;;;7.80;80.30;;;;;;5046105;28;20044;-56
2022/05/04 00:29:32;;;;;;;11.10;2.65;;;7.80;79.30;;;;;;5048492;28;20044;-62
2022/05/04 00:31:58;;;;;;;12.63;2.40;;;7.80;85.00;;;;;;5038889;28;20562;-64
2022/05/04 00:34:23;;;;;;;11.98;2.90;;;7.80;86.40;;;;;;5039311;28;20110;-65
2022/05/04 00:36:49;;;;;;;11.98;2.45;;;7.80;82.60;;;;;;5027883;28;20427;-53
2022/05/04 00:39:15;;;;;;;13.32;2.75;;;7.80;84.20;;;;;;5025265;28;20574;-61
2022/05/04 00:41:41;;;;;;;9.90;2.45;;;7.80;85.20;;;;;;5047006;28;20511;-61
2022/05/04 00:44:06;;;;;;;6.90;2.08;;;7.80;88.20;;;;;;5059209;28;20603;-55
2022/05/04 00:46:32;;;;;;;10.25;2.35;;;7.80;86.80;;;;;;5049694;28;20098;-65
2022/05/04 00:48:58;;;;;;;13.88;2.72;;;7.80;87.10;;;;;;5066618;28;20105;-58
2022/05/04 00:51:25;;;;;;;13.90;2.80;;;7.70;90.00;;;;;;5033584;28;20056;-67
2022/05/04 00:53:51;;;;;;;11.07;2.40;;;7.70;86.00;;;;;;5048191;28;20127;-66
2022/05/04 00:56:16;;;;;;;8.73;2.20;;;7.80;84.80;;;;;;5015679;28;20098;-57
2022/05/04 00:58:55;;;;;;;11.85;2.20;;;7.80;82.10;;;;;;5033054;28;20052;-61
2022/05/04 01:01:26;;;;;;;13.98;2.33;;;7.80;86.20;;;;;;5044009;28;20049;-62
2022/05/04 01:03:52;;;;;;;9.48;2.30;;;7.90;84.10;;;;;;5030311;28;20079;-61
2022/05/04 01:06:19;;;;;;;13.07;2.20;;;7.90;82.50;;;;;;5044158;28;20064;-59
2022/05/04 01:08:44;;;;;;;8.00;1.90;;;7.90;76.60;;;;;;5049719;28;20056;-66
2022/05/04 01:11:10;;;;;;;7.95;1.80;;;7.90;75.70;;;;;;5048468;28;20414;-54
2022/05/04 01:13:36;;;;;;;9.80;1.52;;;7.90;72.80;;;;;;5048995;28;20096;-64
2022/05/04 01:16:02;;;;;;;13.77;2.28;;;7.90;73.70;;;;;;5047116;28;20047;-49
2022/05/04 01:18:27;;;;;;;11.13;2.38;;;7.90;75.80;;;;;;5048408;28;20109;-53
2022/05/04 01:20:53;;;;;;;15.20;2.25;;;7.90;69.00;;;;;;5049257;28;20048;-60
2022/05/04 01:23:19;;;;;;;8.77;2.00;;;7.90;71.60;;;;;;5048001;28;20453;-62
2022/05/04 01:25:45;;;;;;;9.73;1.83;;;7.90;74.90;;;;;;5062987;28;20438;-64
2022/05/04 01:28:11;;;;;;;11.93;2.55;;;7.90;75.90;;;;;;5026545;28;20106;-66
2022/05/04 01:30:37;;;;;;;9.57;2.20;;;7.90;73.80;;;;;;5028489;28;20519;-62
2022/05/04 01:33:03;;;;;;;13.82;2.58;;;7.90;72.00;;;;;;5028061;28;20048;-52
2022/05/04 01:35:29;;;;;;;5.78;2.20;;;7.90;73.80;;;;;;5028366;28;20148;-63
2022/05/04 01:37:54;;;;;;;9.95;1.92;;;7.90;74.20;;;;;;5046455;28;20040;-53
2022/05/04 01:40:21;;;;;;;10.90;2.35;;;7.90;74.70;;;;;;5047979;28;20049;-64
2022/05/04 01:42:46;;;;;;;12.80;2.10;;;7.80;73.10;;;;;;5032542;28;20102;-62
2022/05/04 01:45:12;;;;;;;8.68;1.92;;;7.80;74.40;;;;;;5047756;28;20075;-53
2022/05/04 01:47:38;;;;;;;9.65;2.08;;;7.80;75.00;;;;;;5036938;28;20053;-64
2022/05/04 01:50:05;;;;;;;18.45;2.55;;;7.80;77.20;;;;;;5011614;28;20049;-64
2022/05/04 01:52:31;;;;;;;8.52;1.88;;;7.80;76.80;;;;;;5046807;28;20049;-61
2022/05/04 01:55:00;;;;;;;11.85;2.33;;;7.80;74.10;;;;;;5046431;28;20052;-51
2022/05/04 01:57:27;;;;;;;8.02;2.05;;;7.70;80.00;;;;;;5028897;28;20123;-59
2022/05/04 01:59:53;;;;;;;8.02;1.88;;;7.70;80.30;;;;;;5046966;28;20699;-59
2022/05/04 02:02:19;;;;;;;12.93;2.40;;;7.70;79.40;;;;;;5027775;28;20055;-60
2022/05/04 02:04:45;;;;;;;10.38;2.13;;;7.70;82.20;;;;;;5029002;28;20182;-62
2022/05/04 02:07:11;;;;;;;11.98;2.65;;;7.70;80.60;;;;;;5044143;28;20511;-55
2022/05/04 02:09:37;;;;;;;11.48;2.50;;;7.70;80.30;;;;;;5045690;28;20045;-57
2022/05/04 02:12:04;;;;;;;7.80;2.20;;;7.70;81.70;;;;;;5044648;28;20297;-53
2022/05/04 02:14:32;;;;;;;11.50;2.33;;;7.60;81.80;;;;;;5044695;28;20049;-55
2022/05/04 02:16:59;;;;;;;10.00;2.33;;;7.70;82.10;;;;;;5043718;28;20125;-61
2022/05/04 02:19:24;;;;;;;9.98;1.95;;;7.60;82.30;;;;;;5044297;28;20056;-65
2022/05/04 02:21:50;;;;;;;12.02;2.33;;;7.60;84.90;;;;;;5048219;28;20399;-61
2022/05/04 02:24:16;;;;;;;15.43;3.65;;;7.60;84.70;;;;;;5046217;28;20061;-55
2022/05/04 02:26:42;;;;;;;8.48;2.25;;;7.60;83.50;;;;;;5038563;28;20514;-62
2022/05/04 02:29:08;;;;;;;10.52;2.42;;;7.60;84.80;;;;;;5011196;28;20049;-58
2022/05/04 02:31:34;;;;;;;10.85;2.67;;;7.60;86.20;;;;;;5028391;28;20048;-57
2022/05/04 02:33:59;;;;;;;9.95;2.17;;;7.60;86.00;;;;;;5028991;28;20045;-55
2022/05/04 02:39:09;;;;;;;4.93;1.73;;;7.60;85.20;;;;;;5028523;28;20053;-63
2022/05/04 02:41:35;;;;;;;14.63;2.22;;;7.60;83.40;;;;;;5010176;28;20064;-61
2022/05/04 02:44:01;;;;;;;11.95;3.05;;;7.60;83.80;;;;;;5028657;28;20064;-59
2022/05/04 02:46:28;;;;;;;8.25;1.92;;;7.60;83.50;;;;;;5011149;28;20044;-58
2022/05/04 02:48:54;;;;;;;12.43;2.55;;;7.60;82.70;;;;;;5028384;28;20052;-52
2022/05/04 02:51:20;;;;;;;12.45;2.03;;;7.60;80.70;;;;;;5027893;28;20080;-56
2022/05/04 02:53:46;;;;;;;7.50;1.63;;;7.60;83.00;;;;;;5027056;28;20059;-65
2022/05/04 02:56:15;;;;;;;9.70;2.10;;;7.60;83.70;;;;;;5012099;28;20055;-64
2022/05/04 02:58:42;;;;;;;12.00;2.08;;;7.60;83.00;;;;;;5025900;28;20045;-50
2022/05/04 03:02:26;;;;;;;10.23;2.05;;;7.60;84.30;;;;;;5028772;28;20037;-63
2022/05/04 03:03:54;;;;;;;10.77;2.42;;;7.60;85.10;;;;;;5027102;28;20319;-57
2022/05/04 03:06:19;;;;;;;8.00;2.15;;;7.60;84.40;;;;;;5045919;28;20118;-63
2022/05/04 03:08:45;;;;;;;7.50;1.95;;;7.60;83.80;;;;;;5010585;28;20060;-62
2022/05/04 03:13:55;;;;;;;8.55;1.73;;;7.60;86.10;;;;;;5031273;28;20060;-50
2022/05/04 03:16:21;;;;;;;11.35;1.83;;;7.60;84.80;;;;;;5027441;28;20037;-56
2022/05/04 03:18:46;;;;;;;9.80;2.20;;;7.60;85.20;;;;;;5027982;28;20124;-53
2022/05/04 03:21:12;;;;;;;8.85;1.88;;;7.60;83.50;;;;;;5029037;28;20049;-56
2022/05/04 03:23:38;;;;;;;10.93;2.35;;;7.60;83.50;;;;;;5047762;28;20056;-63
2022/05/04 03:26:08;;;;;;;12.38;2.20;;;7.60;86.50;;;;;;5048227;28;20056;-50
2022/05/04 03:28:34;;;;;;;12.15;2.10;;;7.60;86.50;;;;;;5046748;28;20410;-61
2022/05/04 03:31:00;;;;;;;9.32;1.92;;;7.60;88.70;;;;;;5011698;28;20048;-61
2022/05/04 03:33:26;;;;;;;10.20;1.90;;;7.50;88.00;;;;;;5026604;28;20515;-59
2022/05/04 03:35:51;;;;;;;11.80;2.03;;;7.50;88.20;;;;;;5047076;28;20044;-60
2022/05/04 03:38:17;;;;;;;9.15;1.83;;;7.50;80.80;;;;;;5030144;28;20060;-63
2022/05/04 03:40:43;;;;;;;8.63;2.22;;;7.60;84.50;;;;;;5050386;28;20048;-61
2022/05/04 03:43:09;;;;;;;7.65;1.67;;;7.60;89.30;;;;;;5031430;28;20063;-54
2022/05/04 03:45:35;;;;;;;10.75;2.15;;;7.60;77.80;;;;;;5031034;28;20132;-57
2022/05/04 03:48:00;;;;;;;10.73;2.15;;;7.70;77.30;;;;;;5049234;28;20152;-66
2022/05/04 03:50:26;;;;;;;7.78;1.65;;;7.70;79.50;;;;;;5026017;28;20049;-61
2022/05/04 03:52:52;;;;;;;11.20;2.42;;;7.70;80.40;;;;;;5029339;28;20762;-61
2022/05/04 03:55:17;;;;;;;7.93;1.92;;;7.70;78.10;;;;;;5010191;28;20455;-65
2022/05/04 03:57:43;;;;;;;9.90;1.92;;;7.70;75.50;;;;;;5011623;28;20059;-53
2022/05/04 04:00:09;;;;;;;9.43;1.88;;;7.70;79.10;;;;;;5013323;28;20085;-59
2022/05/04 04:02:36;;;;;;;9.65;1.75;;;7.60;80.80;;;;;;5011403;28;20075;-55
2022/05/04 04:05:02;;;;;;;11.65;1.77;;;7.60;78.00;;;;;;5030790;28;20041;-62
2022/05/04 04:07:29;;;;;;;11.48;1.92;;;7.60;78.10;;;;;;4997637;28;20577;-62
2022/05/04 04:09:54;;;;;;;11.43;1.60;;;7.70;78.20;;;;;;5048343;28;20406;-62
2022/05/04 04:12:21;;;;;;;9.65;2.20;;;7.70;79.10;;;;;;5048515;28;20041;-59
2022/05/04 04:14:47;;;;;;;7.65;1.58;;;7.60;77.90;;;;;;5030451;28;20132;-58
2022/05/04 04:17:13;;;;;;;17.10;2.05;;;7.70;79.70;;;;;;4996089;28;20148;-63
2022/05/04 04:19:38;;;;;;;11.98;2.17;;;7.60;83.30;;;;;;5048819;28;20084;-53
2022/05/04 04:22:04;;;;;;;6.93;1.60;;;7.70;84.10;;;;;;5033700;28;20056;-63
2022/05/04 04:24:30;;;;;;;7.32;1.90;;;7.60;84.90;;;;;;5034763;28;20040;-65
2022/05/04 04:26:56;;;;;;;18.65;1.88;;;7.60;83.60;;;;;;5050415;28;20088;-67
2022/05/04 04:29:21;;;;;;;16.00;2.28;;;7.70;81.60;;;;;;5016038;28;20066;-50
2022/05/04 04:31:47;;;;;;;11.93;2.10;;;7.60;79.90;;;;;;5041900;28;20555;-52
2022/05/04 04:34:13;;;;;;;13.63;2.85;;;7.60;80.10;;;;;;5028973;28;20470;-53
2022/05/04 04:36:43;;;;;;;11.00;2.30;;;7.70;78.60;;;;;;5031068;28;20051;-61
2022/05/04 04:39:09;;;;;;;8.25;1.90;;;7.70;78.80;;;;;;5013106;28;20442;-53
2022/05/04 04:41:35;;;;;;;10.38;1.73;;;7.70;75.80;;;;;;5013748;28;20080;-58
2022/05/04 04:44:04;;;;;;;11.90;1.95;;;7.80;74.40;;;;;;5048123;28;20059;-63
2022/05/04 04:46:29;;;;;;;9.30;2.13;;;7.80;76.20;;;;;;5029307;28;20057;-57
2022/05/04 04:48:55;;;;;;;14.05;2.28;;;7.80;74.00;;;;;;5013146;28;20944;-63
2022/05/04 04:51:21;;;;;;;5.97;1.70;;;7.90;75.40;;;;;;5045708;28;20519;-60
2022/05/04 04:53:46;;;;;;;11.25;2.28;;;7.90;72.90;;;;;;5009754;28;20041;-59
2022/05/04 04:56:13;;;;;;;10.00;1.65;;;7.90;72.80;;;;;;5010841;28;20411;-60
2022/05/04 04:58:39;;;;;;;12.57;2.05;;;7.90;75.70;;;;;;5009613;28;20049;-56
2022/05/04 05:01:16;;;;;;;14.57;1.90;;;7.90;76.60;;;;;;5013036;28;20126;-55
2022/05/04 05:03:42;;;;;;;13.00;2.22;;;7.90;77.40;;;;;;5028246;28;20479;-61
2022/05/04 05:06:08;;;;;;;7.13;1.88;;;7.90;76.90;;;;;;5028078;28;20666;-63
2022/05/04 05:08:33;;;;;;;9.35;2.17;;;8.00;79.30;;;;;;5011683;28;20057;-64
2022/05/04 05:10:59;;;;;;;8.23;1.90;;;8.00;78.70;;;;;;5011962;28;20135;-55
2022/05/04 05:13:25;;;;;;;14.02;1.85;;;8.00;79.60;;;;;;5027998;28;20117;-57
2022/05/04 05:16:08;;;;;;;5.68;1.35;;;8.00;79.30;;;;;;5028172;28;20053;-60
2022/05/04 05:18:35;;;;;;;7.47;2.03;;;8.00;78.50;;;;;;5046494;28;20049;-62
2022/05/04 05:21:01;;;;;;;12.77;2.05;;;8.10;75.60;;;;;;5044993;28;20483;-60
2022/05/04 05:23:27;;;;;;;12.50;1.70;;;8.10;74.60;;;;;;5046658;28;20123;-53
2022/05/04 05:25:53;;;;;;;12.43;2.25;;;8.20;73.20;;;;;;5045428;28;20041;-55
2022/05/04 05:28:19;;;;;;;10.50;1.88;;;8.20;70.10;;;;;;5011987;28;20491;-63
2022/05/04 05:30:45;;;;;;;8.07;1.75;;;8.20;68.70;;;;;;5027029;28;20044;-53
2022/05/04 05:33:11;;;;;;;13.70;2.20;;;8.20;65.50;;;;;;5012393;28;20111;-60
2022/05/04 05:35:37;;;;;;;11.40;1.90;;;8.30;69.90;;;;;;5027943;28;20422;-51
2022/05/04 05:38:03;;;;;;;10.27;1.98;;;8.30;66.50;;;;;;5027550;28;20133;-53
2022/05/04 05:40:29;;;;;;;11.57;1.98;;;8.30;67.10;;;;;;5012931;28;20131;-58
2022/05/04 05:42:54;;;;;;;15.45;2.13;;;8.30;68.70;;;;;;5010448;28;20053;-56
2022/05/04 05:45:20;;;;;;;9.43;2.05;;;8.30;70.20;;;;;;5028683;28;20064;-63
2022/05/04 05:47:46;;;;;;;13.48;2.05;;;8.30;67.20;;;;;;5010441;28;20048;-55
2022/05/04 05:50:11;;;;;;;10.65;1.92;;;8.30;73.00;;;;;;5046193;28;20514;-63
2022/05/04 05:52:37;;;;;;;12.57;1.98;;;8.40;71.20;;;;;;5005778;28;1121178;-51
2022/05/04 05:55:03;;;;;;;7.82;1.80;;;8.40;73.80;;;;;;5046762;28;20060;-66
2022/05/04 05:57:29;;;;;;;11.73;2.80;;;8.40;70.10;;;;;;5028135;28;20124;-55
2022/05/04 05:59:55;;;;;;;6.60;1.45;;;8.40;67.90;;;;;;5025506;28;20116;-55
2022/05/04 06:02:22;;;;;;;12.75;2.53;;;8.40;63.90;;;;;;5029201;28;20094;-60
2022/05/04 06:04:49;;;;;;;11.52;2.03;;;8.50;67.60;;;;;;5028203;28;20077;-59
2022/05/04 06:07:15;;;;;;;7.40;1.70;;;8.50;70.10;;;;;;5029428;28;20110;-48
2022/05/04 06:09:40;;;;;;;7.70;2.25;;;8.50;72.30;;;;;;5044200;28;20049;-53
2022/05/04 06:12:07;;;;;;;12.73;2.28;;;8.50;64.40;;;;;;5044632;28;20124;-61
2022/05/04 06:14:32;;;;;;;14.18;2.25;;;8.50;63.10;;;;;;5028153;28;20102;-53
2022/05/04 06:16:58;;;;;;;15.90;2.65;;;8.60;64.10;;;;;;5029349;28;20037;-63
2022/05/04 06:19:24;;;;;;;16.05;1.95;;;8.60;68.80;;;;;;5011856;28;20102;-64
2022/05/04 06:21:50;;;;;;;14.70;2.10;;;8.60;64.60;;;;;;5008169;28;20582;-59
2022/05/04 06:24:16;;;;;;;9.63;2.45;;;8.70;63.10;;;;;;4993560;28;20061;-58
2022/05/04 06:26:42;;;;;;;8.98;2.40;;;8.70;64.20;;;;;;5022940;28;20487;-60
2022/05/04 06:29:08;;;;;;;11.38;1.77;;;8.70;61.60;;;;;;5027711;28;20037;-63
2022/05/04 06:34:17;;;;;;;10.40;1.95;;;8.70;64.40;;;;;;5027446;28;20049;-62
2022/05/04 06:36:43;;;;;;;13.75;2.08;;;8.80;68.40;;;;;;5028723;28;20045;-60
2022/05/04 06:39:10;;;;;;;10.25;2.08;;;8.80;66.90;;;;;;5006769;28;20049;-56
2022/05/04 06:41:37;;;;;;;16.88;2.40;;;8.80;64.40;;;;;;5026836;28;20053;-57
2022/05/04 06:44:04;;;;;;;10.82;2.13;;;8.80;65.30;;;;;;5041833;28;20045;-62
2022/05/04 06:46:29;;;;;;;15.43;2.40;;;8.80;61.70;;;;;;5028233;28;20049;-52
2022/05/04 06:48:55;;;;;;;8.88;2.08;;;8.80;60.80;;;;;;5026664;28;20056;-51
2022/05/04 06:51:21;;;;;;;11.43;2.75;;;8.90;60.90;;;;;;5012054;28;20056;-60
2022/05/04 06:53:47;;;;;;;7.88;1.83;;;8.90;61.20;;;;;;5028595;28;20491;-55
2022/05/04 06:56:12;;;;;;;18.08;2.42;;;9.00;66.10;;;;;;5010797;28;20491;-53
2022/05/04 06:58:38;;;;;;;15.50;2.00;;;9.00;62.60;;;;;;5028704;28;20049;-53
2022/05/04 07:01:08;;;;;;;7.05;2.10;;;9.10;60.00;;;;;;5021054;28;20547;-63
2022/05/04 07:03:33;;;;;;;13.27;2.33;;;9.10;62.30;;;;;;5012893;28;20626;-59
2022/05/04 07:06:00;;;;;;;8.48;2.10;;;9.10;60.10;;;;;;5026338;28;20112;-56
2022/05/04 07:08:26;;;;;;;8.45;2.05;;;9.20;61.60;;;;;;5015147;28;20047;-55
2022/05/04 07:10:52;;;;;;;9.00;2.30;;;9.20;62.50;;;;;;5025702;28;20132;-63
2022/05/04 07:13:17;;;;;;;7.43;2.25;;;9.30;60.90;;;;;;5011409;28;20103;-52
2022/05/04 07:15:44;;;;;;;9.48;2.25;;;9.30;58.30;;;;;;5024013;28;20132;-52
2022/05/04 07:18:10;;;;;;;14.43;2.25;;;9.40;60.00;;;;;;5026043;28;20128;-52
2022/05/04 07:20:35;;;;;;;7.82;2.50;;;9.40;57.10;;;;;;5048326;28;20153;-55
2022/05/04 07:23:01;;;;;;;11.57;2.00;;;9.50;56.00;;;;;;5029296;28;20491;-61
2022/05/04 07:25:27;;;;;;;13.85;2.30;;;9.50;52.70;;;;;;5015130;28;20041;-59
2022/05/04 07:27:53;;;;;;;11.18;2.47;;;9.50;49.10;;;;;;5027571;28;20050;-57
2022/05/04 07:30:18;;;;;;;7.05;2.00;;;9.50;50.30;;;;;;5004666;28;20528;-60
2022/05/04 07:32:44;;;;;;;12.38;2.15;;;9.50;53.80;;;;;;5045424;28;20072;-61
2022/05/04 07:35:10;;;;;;;16.63;2.15;;;9.60;57.70;;;;;;5029412;28;20060;-54
2022/05/04 07:37:36;;;;;;;11.50;2.25;;;9.70;57.30;;;;;;5047735;28;20059;-64
2022/05/04 07:42:46;;;;;;;12.82;1.90;;;9.80;53.90;;;;;;5012124;28;20045;-58
2022/05/04 07:45:13;;;;;;;9.55;1.95;;;9.90;48.70;;;;;;5010399;28;20049;-64
2022/05/04 07:47:40;;;;;;;15.80;2.25;;;10.00;52.40;;;;;;5011221;28;20064;-52
2022/05/04 07:50:08;;;;;;;14.57;3.28;;;10.00;53.80;;;;;;4997670;28;20106;-53
2022/05/04 07:52:34;;;;;;;10.98;2.00;;;10.00;49.10;;;;;;5013259;28;20057;-59
2022/05/04 07:55:01;;;;;;;9.25;1.90;;;10.10;50.10;;;;;;5030880;28;20049;-67
2022/05/04 07:57:27;;;;;;;6.63;1.52;;;10.10;48.80;;;;;;5030428;28;20404;-58
2022/05/04 08:05:23;;;;;;;11.95;2.50;;;10.10;49.70;;;;;;5048060;28;20399;-51
2022/05/04 08:07:49;;;;;;;11.15;1.88;;;10.20;50.00;;;;;;5049208;28;20049;-56
2022/05/04 08:10:14;;;;;;;11.65;2.17;;;10.20;45.00;;;;;;5029683;28;20053;-61
2022/05/04 08:12:40;;;;;;;11.43;1.60;;;10.10;35.60;;;;;;5030955;28;20110;-60
2022/05/04 08:15:07;;;;;;;8.43;1.83;;;9.90;34.10;;;;;;5028685;28;20128;-56
2022/05/04 08:17:33;;;;;;;6.10;1.60;;;10.00;49.50;;;;;;5031346;28;20045;-56
2022/05/04 08:19:59;;;;;;;5.43;1.55;;;10.00;42.70;;;;;;5030549;28;20559;-58
2022/05/04 08:22:26;;;;;;;3.95;1.35;;;10.00;38.40;;;;;;5029994;28;20128;-56
2022/05/04 08:24:52;;;;;;;8.18;1.73;;;9.90;37.30;;;;;;4998201;28;20041;-60
2022/05/04 08:27:18;;;;;;;7.28;1.60;;;10.00;36.80;;;;;;5001655;28;20071;-52
2022/05/04 08:29:46;;;;;;;10.73;1.70;;;10.00;41.90;;;;;;5030788;28;20159;-58
2022/05/04 08:32:13;;;;;;;11.90;2.38;;;10.00;37.00;;;;;;5009203;28;20045;-61
2022/05/04 08:34:39;;;;;;;14.05;2.22;;;10.00;39.60;;;;;;5011287;28;20049;-61
2022/05/04 08:37:05;;;;;;;10.82;1.88;;;10.00;35.70;;;;;;5011769;28;20084;-57
2022/05/04 08:39:31;;;;;;;6.80;1.70;;;10.00;32.00;;;;;;5030485;28;20049;-54
2022/05/04 08:41:58;;;;;;;15.93;2.83;;;9.90;32.40;;;;;;5030135;28;20056;-61
2022/05/04 08:44:23;;;;;;;15.48;2.70;;;9.90;39.40;;;;;;5047207;28;20487;-62
2022/05/04 08:46:50;;;;;;;6.15;1.73;;;9.90;40.60;;;;;;5030533;28;20099;-63
2022/05/04 08:49:19;;;;;;;9.65;2.53;;;10.00;46.20;;;;;;5028451;28;20052;-61
2022/05/04 08:51:46;;;;;;;7.25;1.75;;;10.00;38.70;;;;;;5030861;28;20049;-49
2022/05/04 08:54:13;;;;;;;13.88;2.35;;;10.00;45.80;;;;;;5028777;28;20061;-57
2022/05/04 08:56:39;;;;;;;7.10;1.98;;;10.10;41.80;;;;;;5030537;28;20048;-58
2022/05/04 08:59:06;;;;;;;8.93;2.20;;;10.10;37.90;;;;;;5045991;28;20060;-56
2022/05/04 09:01:32;;;;;;;10.38;2.25;;;10.10;37.70;;;;;;5029622;28;20125;-55
2022/05/04 09:03:59;;;;;;;8.95;2.00;;;10.00;35.50;;;;;;5030452;28;20060;-61
2022/05/04 09:06:30;;;;;;;14.50;1.98;;;10.00;39.70;;;;;;5028581;28;20076;-59
2022/05/04 09:09:08;;;;;;;10.38;2.33;;;10.00;38.40;;;;;;5029885;28;20080;-61
2022/05/04 09:11:37;;;;;;;13.27;2.50;;;10.00;35.40;;;;;;5028920;28;20139;-54
2022/05/04 09:14:15;;;;;;;13.13;1.90;;;10.00;37.40;;;;;;5030056;28;20056;-56
2022/05/04 09:16:41;;;;;;;7.40;1.73;;;10.10;43.30;;;;;;5029909;28;20059;-52
2022/05/04 09:19:15;;;;;;;6.55;1.60;;;10.20;37.20;;;;;;5028203;28;20052;-66
2022/05/04 09:21:41;;;;;;;13.20;2.08;;;10.30;41.20;;;;;;5030243;28;20052;-62
2022/05/04 09:24:08;;;;;;;9.77;2.10;;;10.30;35.90;;;;;;5028456;28;20041;-54
2022/05/04 09:26:42;;;;;;;11.00;1.70;;;10.30;38.20;;;;;;5030386;28;20128;-52
2022/05/04 09:29:11;;;;;;;10.10;1.95;;;10.40;38.80;;;;;;5028867;28;20407;-49
2022/05/04 09:31:45;;;;;;;4.22;1.50;;;10.50;36.10;;;;;;5046524;28;20102;-59
2022/05/04 09:34:11;;;;;;;6.10;1.75;;;10.40;28.60;;;;;;5029305;28;20045;-54
2022/05/04 09:45:10;;;;;;;6.47;1.95;;;10.60;33.30;;;;;;5026266;28;20057;-57
2022/05/04 09:47:39;;;;;;;9.70;2.00;;;10.70;36.90;;;;;;5025742;28;20053;-52
2022/05/04 09:50:05;;;;;;;7.68;1.58;;;10.70;37.10;;;;;;5009593;28;20049;-61
2022/05/04 09:52:41;;;;;;;9.80;2.15;;;10.80;34.10;;;;;;5028733;28;20076;-53
2022/05/04 09:55:20;;;;;;;7.13;2.00;;;10.90;30.50;;;;;;5027586;28;20476;-51
2022/05/04 09:57:48;;;;;;;10.68;1.95;;;10.70;28.00;;;;;;5027025;28;20119;-57
2022/05/04 10:00:20;;;;;;;13.27;2.70;;;10.60;26.60;;;;;;5028040;28;20114;-59
2022/05/04 10:02:46;;;;;;;10.93;2.10;;;10.60;33.30;;;;;;5024745;28;20076;-64
2022/05/04 10:05:14;;;;;;;14.27;1.95;;;10.60;35.40;;;;;;5028064;28;20045;-65
2022/05/04 10:07:44;;;;;;;6.07;1.70;;;10.50;29.00;;;;;;5010039;28;20045;-59
2022/05/04 10:10:14;;;;;;;10.68;2.25;;;10.60;31.80;;;;;;5028828;28;20168;-63
2022/05/04 10:12:44;;;;;;;8.57;2.05;;;10.60;32.70;;;;;;5012657;28;20067;-52
2022/05/04 10:15:14;;;;;;;13.35;2.13;;;10.70;30.60;;;;;;5028041;28;20063;-60
2022/05/04 10:18:05;;;;;;;6.60;1.75;;;10.70;28.10;;;;;;5028914;28;20526;-66
2022/05/04 10:20:37;;;;;;;9.70;1.80;;;10.60;33.60;;;;;;5027008;28;20472;-57
2022/05/04 10:23:08;;;;;;;7.22;2.00;;;10.60;30.40;;;;;;5028194;28;20044;-57
2022/05/04 10:25:35;;;;;;;14.35;2.10;;;10.70;33.70;;;;;;5023843;28;20522;-64
2022/05/04 10:28:06;;;;;;;9.77;1.77;;;10.60;29.10;;;;;;5008150;28;20518;-61
2022/05/04 10:30:34;;;;;;;12.50;2.28;;;10.70;29.50;;;;;;5008286;28;20124;-59
2022/05/04 10:33:05;;;;;;;12.75;2.42;;;10.80;36.20;;;;;;5025748;28;20421;-56
2022/05/04 10:35:41;;;;;;;8.30;2.72;;;11.00;33.70;;;;;;5012266;28;20056;-51
2022/05/04 10:38:31;;;;;;;7.07;1.70;;;10.90;29.20;;;;;;5045858;28;20045;-54
2022/05/04 10:41:02;;;;;;;10.83;2.10;;;11.00;29.70;;;;;;5027664;28;20049;-67
2022/05/04 10:43:40;;;;;;;8.38;2.30;;;11.00;31.70;;;;;;5012278;28;20049;-60
2022/05/04 10:46:16;;;;;;;5.43;1.60;;;11.10;26.90;;;;;;5028324;28;20068;-56
2022/05/04 10:48:54;;;;;;;5.80;1.60;;;11.00;28.10;;;;;;5017201;28;20045;-60
2022/05/04 10:51:21;;;;;;;9.30;2.25;;;11.00;30.10;;;;;;5028173;28;20056;-60
2022/05/04 10:53:53;;;;;;;11.80;2.17;;;10.90;28.00;;;;;;5002155;28;20044;-56
2022/05/04 10:56:24;;;;;;;9.35;2.03;;;10.80;32.40;;;;;;5039398;28;20055;-62
2022/05/04 10:58:49;;;;;;;9.85;1.45;;;10.90;29.50;;;;;;5030940;28;20514;-61
2022/05/04 11:01:23;;;;;;;14.25;2.03;;;10.90;30.70;;;;;;5032329;28;20044;-57
2022/05/04 11:03:58;;;;;;;10.02;1.92;;;11.00;29.50;;;;;;5028393;28;20133;-64
2022/05/04 11:06:32;;;;;;;6.85;1.60;;;11.00;29.90;;;;;;5044883;28;20403;-61
2022/05/04 11:09:12;;;;;;;8.13;1.73;;;11.40;32.40;;;;;;5031240;28;20084;-56
2022/05/04 11:11:41;;;;;;;11.65;1.77;;;11.30;27.60;;;;;;5029056;28;20048;-55
2022/05/04 11:14:09;;;;;;;8.25;2.15;;;11.30;26.90;;;;;;5049699;28;20503;-57
2022/05/04 11:16:37;;;;;;;9.25;1.83;;;11.30;27.00;;;;;;5029669;28;20098;-58
2022/05/04 11:19:04;;;;;;;11.50;3.53;;;11.30;25.80;;;;;;5032276;28;20044;-66
2022/05/04 11:21:32;;;;;;;8.52;1.60;;;11.10;28.10;;;;;;5030907;28;20080;-53
2022/05/04 11:24:01;;;;;;;7.05;2.08;;;11.10;27.40;;;;;;5031561;28;20056;-56
2022/05/04 11:26:39;;;;;;;8.87;2.00;;;10.90;26.70;;;;;;5032045;28;20040;-54
2022/05/04 11:29:10;;;;;;;6.28;1.77;;;11.00;30.10;;;;;;5013990;28;20099;-59
2022/05/04 11:31:36;;;;;;;15.23;3.05;;;11.00;25.00;;;;;;5031626;28;20496;-51
2022/05/04 11:34:02;;;;;;;7.95;1.60;;;11.10;33.60;;;;;;5044057;28;20041;-59
2022/05/04 11:36:29;;;;;;;3.65;1.40;;;11.30;30.00;;;;;;5017710;28;20080;-66
2022/05/04 11:38:55;;;;;;;8.90;1.90;;;11.40;23.10;;;;;;5029873;28;20044;-53
2022/05/04 11:41:27;;;;;;;5.90;1.60;;;11.50;29.70;;;;;;5013502;28;20048;-67
2022/05/04 11:43:54;;;;;;;9.82;1.20;;;11.50;24.40;;;;;;5030070;28;20049;-58
2022/05/04 11:46:21;;;;;;;9.23;1.85;;;11.60;24.50;;;;;;5019496;28;20108;-67
2022/05/04 11:48:47;;;;;;;6.00;1.85;;;11.50;29.10;;;;;;5014141;28;20060;-55
2022/05/04 11:51:18;;;;;;;5.90;1.77;;;11.50;29.00;;;;;;5028877;28;20381;-53
2022/05/04 11:53:45;;;;;;;11.35;1.70;;;11.50;28.00;;;;;;5030483;28;20106;-67
2022/05/04 11:56:11;;;;;;;5.03;1.55;;;11.50;26.40;;;;;;5015258;28;20125;-59
2022/05/04 11:58:37;;;;;;;7.53;1.60;;;11.60;28.80;;;;;;5026863;28;20057;-59
2022/05/04 12:01:07;;;;;;;8.38;1.65;;;11.80;29.40;;;;;;5016889;28;20070;-50
2022/05/04 12:03:37;;;;;;;4.60;1.33;;;12.00;27.00;;;;;;5046169;28;20546;-67
2022/05/04 12:06:05;;;;;;;8.73;2.17;;;12.20;29.80;;;;;;5048209;28;20374;-60
2022/05/04 12:08:32;;;;;;;6.15;1.50;;;12.10;24.00;;;;;;5014729;28;20448;-65
2022/05/04 12:10:59;;;;;;;9.70;1.88;;;12.10;27.90;;;;;;5028903;28;20124;-50
2022/05/04 12:13:26;;;;;;;13.48;1.80;;;12.20;26.90;;;;;;5011613;28;20049;-59
2022/05/04 12:15:56;;;;;;;12.48;2.55;;;12.10;23.80;;;;;;5030177;28;20055;-65
2022/05/04 12:18:28;;;;;;;9.18;2.25;;;11.90;25.10;;;;;;5014283;28;20128;-63
2022/05/04 12:20:54;;;;;;;6.97;1.40;;;11.80;31.70;;;;;;5047788;28;20396;-67
2022/05/04 12:23:21;;;;;;;4.63;1.50;;;11.90;27.00;;;;;;5031464;28;20060;-62
2022/05/04 12:25:46;;;;;;;10.50;1.85;;;12.20;26.80;;;;;;5029262;28;20103;-64
2022/05/04 12:28:12;;;;;;;7.53;1.50;;;12.30;29.70;;;;;;5030965;28;20053;-66
2022/05/04 12:33:33;;;;;;;10.00;1.90;;;11.80;22.10;;;;;;5029611;28;20138;-61
2022/05/04 12:36:04;;;;;;;4.20;1.20;;;11.50;28.00;;;;;;5031050;28;20045;-61
2022/05/04 12:38:33;;;;;;;7.50;1.23;;;11.60;27.40;;;;;;5029286;28;20396;-64
2022/05/04 12:41:00;;;;;;;8.43;2.22;;;11.50;26.30;;;;;;5031127;28;20128;-63
2022/05/04 12:43:30;;;;;;;6.88;2.25;;;11.50;31.80;;;;;;5047306;28;20049;-61
2022/05/04 12:45:56;;;;;;;3.83;1.50;;;11.50;26.50;;;;;;5048162;28;20080;-68
2022/05/04 12:48:25;;;;;;;11.85;2.10;;;11.50;28.80;;;;;;5014180;28;20041;-57
2022/05/04 12:50:55;;;;;;;9.15;2.03;;;11.70;29.20;;;;;;5029286;28;20049;-61
2022/05/04 12:53:26;;;;;;;7.10;1.75;;;11.70;25.10;;;;;;5030760;28;20061;-62
2022/05/04 12:58:36;;;;;;;8.68;1.48;;;11.90;27.80;;;;;;5029753;28;20060;-64
2022/05/04 13:01:06;;;;;;;6.07;1.40;;;12.00;31.60;;;;;;5029427;28;20167;-59
2022/05/04 13:03:33;;;;;;;7.10;1.55;;;12.00;27.10;;;;;;5029182;28;20812;-60
2022/05/04 13:05:59;;;;;;;4.00;1.85;;;12.00;28.80;;;;;;5030779;28;20207;-58
2022/05/04 13:08:26;;;;;;;5.70;1.80;;;12.00;23.10;;;;;;5027569;28;20495;-60
2022/05/04 13:10:52;;;;;;;5.70;1.70;;;11.80;26.00;;;;;;5047815;28;20514;-58
2022/05/04 13:13:19;;;;;;;3.42;1.35;;;11.70;27.70;;;;;;5028517;28;20041;-65
2022/05/04 13:15:51;;;;;;;4.95;1.58;;;11.70;25.60;;;;;;5046645;28;20150;-66
2022/05/04 13:18:17;;;;;;;6.97;1.88;;;11.50;25.50;;;;;;5012804;28;20056;-64